Time;durP1;ratioP1;P1;durP2;ratioP2;P2;SDS_P1;SDS_P2;PMS_P1;PMS_P2;Temp;Humidity;BMP_temperature;BMP_pressure;BME280_temperature;BME280_humidity;BME280_pressure;Samples;Min_cycle;Max_cycle;Signal;HPM_P1;HPM_P2
2022/06/01 00:01:07;;;;;;;;;13.00;13.00;;;;;22.37;49.10;100631.36;110222;1264;23047;-47
2022/06/01 00:03:34;;;;;;;;;11.33;11.00;;;;;22.36;49.24;100611.80;110273;1264;21836;-46
2022/06/01 00:06:01;;;;;;;;;10.00;10.00;;;;;22.36;49.36;100609.05;110276;1264;21755;-47
2022/06/01 00:08:28;;;;;;;;;11.00;11.00;;;;;22.35;49.09;100592.22;110260;1264;19393;-47
2022/06/01 00:10:57;;;;;;;;;10.00;10.00;;;;;22.36;49.15;100584.30;110266;1264;19821;-48
2022/06/01 00:13:24;;;;;;;;;13.67;12.00;;;;;22.36;49.36;100580.64;110295;1264;21876;-48
2022/06/01 00:15:51;;;;;;;;;13.00;11.00;;;;;22.37;49.33;100583.67;110271;1262;19149;-49
2022/06/01 00:18:18;;;;;;;;;14.00;13.33;;;;;22.36;49.23;100588.45;110270;1263;20959;-48
2022/06/01 00:20:46;;;;;;;;;12.67;11.67;;;;;22.37;49.18;100588.59;110325;1264;20375;-48
2022/06/01 00:23:13;;;;;;;;;10.50;10.00;;;;;22.36;49.22;100590.09;110266;1262;23698;-51
2022/06/01 00:25:41;;;;;;;;;13.33;13.00;;;;;22.37;49.16;100585.27;110240;1264;19573;-49
2022/06/01 00:28:08;;;;;;;;;11.67;11.00;;;;;22.38;49.03;100585.45;110240;1264;20403;-48
2022/06/01 00:30:35;;;;;;;;;11.00;10.50;;;;;22.37;49.23;100580.69;110270;1264;19201;-49
2022/06/01 00:33:02;;;;;;;;;10.33;10.00;;;;;22.37;49.13;100587.38;110272;1265;22928;-47
2022/06/01 00:35:30;;;;;;;;;10.00;10.00;;;;;22.37;49.19;100577.96;110139;1264;20411;-50
2022/06/01 00:37:57;;;;;;;;;10.67;10.67;;;;;22.37;48.98;100569.94;110235;1264;23363;-49
2022/06/01 00:40:26;;;;;;;;;9.33;9.00;;;;;22.38;49.23;100580.45;110239;1263;19695;-46
2022/06/01 00:42:53;;;;;;;;;10.33;10.33;;;;;22.37;49.09;100595.98;110284;1264;20261;-50
2022/06/01 00:45:21;;;;;;;;;13.00;10.00;;;;;22.38;49.24;100615.57;110248;1263;19226;-47
2022/06/01 00:47:48;;;;;;;;;12.00;11.00;;;;;22.38;49.13;100622.29;110302;1264;19578;-49
2022/06/01 00:50:15;;;;;;;;;13.00;13.00;;;;;22.39;49.21;100632.38;110277;1264;21732;-48
2022/06/01 00:52:45;;;;;;;;;11.00;10.00;;;;;22.38;49.41;100641.75;110265;1264;19366;-49
2022/06/01 00:55:13;;;;;;;;;10.33;10.33;;;;;22.37;49.25;100636.02;110261;1263;19679;-49
2022/06/01 00:57:41;;;;;;;;;9.67;9.67;;;;;22.37;49.30;100621.19;110288;1264;20327;-48
2022/06/01 01:00:08;;;;;;;;;10.33;10.33;;;;;22.36;49.30;100629.92;110305;1264;19258;-50
2022/06/01 01:02:35;;;;;;;;;13.00;13.00;;;;;22.36;49.24;100628.02;110268;1263;19576;-48
2022/06/01 01:05:03;;;;;;;;;11.00;10.50;;;;;22.36;49.17;100642.93;110297;1264;20249;-49
2022/06/01 01:07:30;;;;;;;;;10.67;10.67;;;;;22.35;49.33;100648.64;110199;1264;19377;-48
2022/06/01 01:09:57;;;;;;;;;11.00;10.00;;;;;22.35;49.27;100643.42;110245;1264;19773;-49
2022/06/01 01:12:24;;;;;;;;;10.00;10.00;;;;;22.36;49.38;100635.63;110244;1264;20348;-49
2022/06/01 01:14:52;;;;;;;;;10.33;10.00;;;;;22.32;49.28;100616.41;110314;1264;23766;-49
2022/06/01 01:17:21;;;;;;;;;10.67;10.67;;;;;22.31;49.23;100599.64;110320;1264;19622;-48
2022/06/01 01:19:48;;;;;;;;;9.33;9.33;;;;;22.31;49.40;100593.31;110290;1264;20194;-48
2022/06/01 01:22:15;;;;;;;;;11.00;10.00;;;;;22.32;49.38;100586.67;110280;1264;19269;-48
2022/06/01 01:24:43;;;;;;;;;12.67;10.33;;;;;22.32;49.30;100580.83;110207;1264;21510;-48
2022/06/01 01:27:10;;;;;;;;;10.67;10.67;;;;;22.33;49.37;100576.73;110238;1264;20612;-48
2022/06/01 01:29:37;;;;;;;;;13.00;10.00;;;;;22.34;49.20;100575.30;110278;1264;23071;-48
2022/06/01 01:32:05;;;;;;;;;11.33;10.33;;;;;22.34;49.25;100574.04;110288;1264;19777;-48
2022/06/01 01:34:33;;;;;;;;;11.00;10.33;;;;;22.33;49.23;100570.85;110275;1264;20968;-47
2022/06/01 01:37:00;;;;;;;;;9.67;9.33;;;;;22.33;49.24;100566.06;110202;1264;19257;-49
2022/06/01 01:39:27;;;;;;;;;10.00;9.00;;;;;22.33;49.26;100563.36;110275;1263;20812;-48
2022/06/01 01:41:55;;;;;;;;;10.00;10.00;;;;;22.33;49.23;100565.27;110311;1264;20580;-48
2022/06/01 01:44:22;;;;;;;;;9.00;9.00;;;;;22.33;49.18;100557.16;110158;1265;19175;-49
2022/06/01 01:46:49;;;;;;;;;9.00;9.00;;;;;22.32;49.28;100554.88;110270;1264;22969;-48
2022/06/01 01:49:16;;;;;;;;;10.33;10.33;;;;;22.32;49.18;100547.48;110295;1264;20847;-48
2022/06/01 01:51:44;;;;;;;;;9.67;9.00;;;;;22.32;49.16;100546.22;110284;1264;23887;-48
2022/06/01 01:54:11;;;;;;;;;10.00;10.00;;;;;22.32;49.32;100551.17;110283;1263;24002;-48
2022/06/01 01:56:39;;;;;;;;;10.00;10.00;;;;;22.32;49.19;100545.64;110325;1264;20474;-48
2022/06/01 01:59:06;;;;;;;;;9.33;9.33;;;;;22.32;49.15;100534.91;110250;1264;19258;-49
2022/06/01 02:01:33;;;;;;;;;9.50;9.50;;;;;22.31;49.31;100527.77;110281;1264;34232;-48
2022/06/01 02:04:00;;;;;;;;;13.00;9.33;;;;;22.32;49.16;100525.30;110163;1265;21482;-42
2022/06/01 02:06:28;;;;;;;;;9.33;9.33;;;;;22.31;49.26;100514.33;110274;1264;19197;-47
2022/06/01 02:08:55;;;;;;;;;9.00;7.67;;;;;22.31;49.19;100511.02;110235;1264;19585;-48
2022/06/01 02:14:07;;;;;;;;;9.33;9.00;;;;;22.31;49.21;100497.95;110204;1264;19351;-49
2022/06/01 02:16:35;;;;;;;;;10.00;10.00;;;;;22.31;49.23;100500.05;110158;1264;19586;-48
2022/06/01 02:19:02;;;;;;;;;10.00;10.00;;;;;22.32;49.18;100504.89;110221;1264;23014;-49
2022/06/01 02:21:29;;;;;;;;;10.00;9.67;;;;;22.31;49.17;100511.13;110246;1264;19301;-47
2022/06/01 02:23:56;;;;;;;;;9.00;9.00;;;;;22.31;49.17;100508.86;110223;1264;23419;-48
2022/06/01 02:26:23;;;;;;;;;9.00;9.00;;;;;22.31;49.37;100506.73;110271;1264;21254;-47
2022/06/01 02:28:51;;;;;;;;;9.67;9.67;;;;;22.30;49.33;100500.98;110223;1264;23033;-48
2022/06/01 02:31:18;;;;;;;;;10.00;9.67;;;;;22.30;49.20;100500.55;110272;1264;21824;-48
2022/06/01 02:33:45;;;;;;;;;8.50;8.50;;;;;22.31;49.13;100504.50;110225;1264;22577;-47
2022/06/01 02:36:14;;;;;;;;;10.00;10.00;;;;;22.30;49.07;100503.34;110211;1264;19385;-48
2022/06/01 02:38:42;;;;;;;;;9.00;9.00;;;;;22.30;49.18;100506.46;110261;1264;19567;-48
2022/06/01 02:42:25;;;;;;;;;9.67;9.67;;;;;22.30;49.32;100507.10;110243;1264;21276;-48
2022/06/01 02:43:57;;;;;;;;;11.33;10.00;;;;;22.31;49.12;100513.27;110154;1264;19315;-49
2022/06/01 02:46:24;;;;;;;;;7.00;7.00;;;;;22.31;49.15;100512.83;110184;1265;21003;-49
2022/06/01 02:48:51;;;;;;;;;9.00;9.00;;;;;22.31;49.25;100512.07;110230;1264;20537;-48
2022/06/01 02:51:19;;;;;;;;;10.00;9.00;;;;;22.31;49.27;100512.52;110199;1264;19244;-48
2022/06/01 02:53:46;;;;;;;;;11.00;10.00;;;;;22.30;49.12;100514.41;110243;1264;21037;-47
2022/06/01 02:56:13;;;;;;;;;9.00;9.00;;;;;22.31;49.29;100522.73;110234;1264;20256;-48
2022/06/01 02:58:40;;;;;;;;;9.00;8.00;;;;;22.30;49.15;100527.34;110228;1264;19102;-48
2022/06/01 03:01:07;;;;;;;;;7.00;7.00;;;;;22.30;49.12;100523.35;110233;1264;19349;-48
2022/06/01 03:03:35;;;;;;;;;7.00;7.00;;;;;22.31;49.11;100523.77;110217;1265;21698;-47
2022/06/01 03:06:02;;;;;;;;;10.00;10.00;;;;;22.30;49.09;100518.64;110221;1265;19554;-49
2022/06/01 03:08:29;;;;;;;;;9.67;9.00;;;;;22.28;49.12;100510.84;110247;1264;23883;-50
2022/06/01 03:10:56;;;;;;;;;9.33;8.33;;;;;22.29;49.12;100506.55;110171;1265;20308;-48
2022/06/01 03:13:24;;;;;;;;;11.00;10.00;;;;;22.28;49.27;100510.05;110187;1264;24443;-48
2022/06/01 03:15:51;;;;;;;;;9.00;9.00;;;;;22.29;49.01;100514.20;110231;1265;19782;-49
2022/06/01 03:18:18;;;;;;;;;7.00;7.00;;;;;22.28;49.09;100509.58;110226;1265;20438;-46
2022/06/01 03:20:46;;;;;;;;;9.00;9.00;;;;;22.29;49.12;100508.61;110254;1265;20380;-47
2022/06/01 03:23:13;;;;;;;;;10.00;10.00;;;;;22.28;49.17;100500.42;110162;1266;19551;-48
2022/06/01 03:25:41;;;;;;;;;10.00;9.00;;;;;22.30;49.19;100492.64;110207;1265;23535;-56
2022/06/01 03:28:09;;;;;;;;;9.33;8.00;;;;;22.28;49.27;100480.98;110196;1265;19272;-48
2022/06/01 03:30:36;;;;;;;;;8.00;7.00;;;;;22.28;49.01;100474.80;110212;1264;19533;-47
2022/06/01 03:33:04;;;;;;;;;9.00;9.00;;;;;22.28;49.10;100468.63;110207;1265;20284;-47
2022/06/01 03:35:31;;;;;;;;;10.00;10.00;;;;;22.28;49.18;100462.83;110241;1265;19907;-48
2022/06/01 03:37:58;;;;;;;;;9.67;9.00;;;;;22.28;49.13;100466.81;110222;1264;19558;-49
2022/06/01 03:40:26;;;;;;;;;9.00;7.00;;;;;22.28;49.18;100464.23;110187;1264;23666;-48
2022/06/01 03:42:53;;;;;;;;;11.33;9.67;;;;;22.28;49.17;100462.76;110210;1265;19313;-48
2022/06/01 03:48:08;;;;;;;;;8.00;8.00;;;;;22.28;49.05;100467.16;110216;1265;20187;-48
2022/06/01 03:50:36;;;;;;;;;12.33;12.00;;;;;22.28;49.30;100476.44;110238;1265;19320;-48
2022/06/01 03:53:04;;;;;;;;;9.67;9.00;;;;;22.29;49.15;100482.58;110207;1264;19665;-48
2022/06/01 03:55:32;;;;;;;;;10.00;9.00;;;;;22.30;49.11;100490.63;110197;1265;20579;-48
2022/06/01 03:57:59;;;;;;;;;9.00;7.00;;;;;22.29;49.05;100500.21;110174;1267;19115;-50
2022/06/01 04:00:26;;;;;;;;;10.00;10.00;;;;;22.29;49.17;100506.05;110180;1267;19646;-48
2022/06/01 04:02:54;;;;;;;;;7.67;7.67;;;;;22.28;49.22;100508.45;110248;1265;23251;-48
2022/06/01 04:05:21;;;;;;;;;9.67;9.67;;;;;22.28;49.10;100510.13;110274;1263;19231;-48
2022/06/01 04:07:48;;;;;;;;;11.33;11.00;;;;;22.28;48.96;100509.07;110208;1264;20847;-46
2022/06/01 04:10:15;;;;;;;;;9.50;8.50;;;;;22.28;49.20;100502.73;110283;1264;20369;-48
2022/06/01 04:12:42;;;;;;;;;10.50;10.00;;;;;22.28;49.00;100502.52;110292;1263;22889;-48
2022/06/01 04:15:10;;;;;;;;;10.00;9.00;;;;;22.28;49.07;100504.84;110288;1264;21961;-48
2022/06/01 04:17:37;;;;;;;;;12.33;10.67;;;;;22.28;49.18;100501.98;110315;1263;22975;-47
2022/06/01 04:20:04;;;;;;;;;8.67;8.00;;;;;22.27;48.91;100504.04;110251;1264;19359;-49
2022/06/01 04:22:32;;;;;;;;;10.00;9.00;;;;;22.27;49.11;100503.36;110282;1262;19615;-48
2022/06/01 04:24:59;;;;;;;;;12.00;9.00;;;;;22.27;49.22;100504.41;110269;1263;23109;-48
2022/06/01 04:27:26;;;;;;;;;9.50;9.50;;;;;22.26;49.17;100495.80;110254;1262;19273;-47
2022/06/01 04:29:53;;;;;;;;;11.33;11.33;;;;;22.27;49.12;100497.73;110325;1264;19514;-49
2022/06/01 04:32:21;;;;;;;;;10.00;9.00;;;;;22.26;49.32;100492.52;110270;1264;20607;-48
2022/06/01 04:34:48;;;;;;;;;10.00;10.00;;;;;22.25;49.15;100484.23;110294;1264;19150;-49
2022/06/01 04:37:15;;;;;;;;;9.50;9.00;;;;;22.26;49.16;100483.14;110304;1264;19677;-48
2022/06/01 04:39:42;;;;;;;;;9.33;9.33;;;;;22.25;49.20;100485.16;110256;1264;20371;-46
2022/06/01 04:42:10;;;;;;;;;9.00;9.00;;;;;22.26;49.29;100478.40;110281;1264;19179;-45
2022/06/01 04:44:37;;;;;;;;;9.00;9.00;;;;;22.26;49.11;100476.77;110333;1263;19511;-48
2022/06/01 04:47:05;;;;;;;;;10.00;10.00;;;;;22.26;49.19;100471.64;110288;1264;23860;-49
2022/06/01 04:49:32;;;;;;;;;9.00;9.00;;;;;22.26;49.08;100468.95;110289;1263;19227;-48
2022/06/01 04:51:59;;;;;;;;;8.67;8.67;;;;;22.25;49.31;100469.16;110289;1264;19417;-48
2022/06/01 04:54:27;;;;;;;;;9.67;9.00;;;;;22.26;49.10;100466.42;110268;1264;22826;-49
2022/06/01 04:56:54;;;;;;;;;8.50;8.50;;;;;22.25;49.28;100462.06;110315;1264;19265;-48
2022/06/01 04:59:21;;;;;;;;;10.00;10.00;;;;;22.25;49.17;100456.27;110277;1264;23742;-49
2022/06/01 05:01:48;;;;;;;;;10.00;10.00;;;;;22.26;49.02;100453.79;110274;1264;20320;-48
2022/06/01 05:04:15;;;;;;;;;9.33;9.00;;;;;22.26;48.88;100454.63;110284;1264;23058;-48
2022/06/01 05:06:43;;;;;;;;;10.00;9.33;;;;;22.26;49.09;100456.77;110292;1264;19610;-48
2022/06/01 05:09:10;;;;;;;;;10.00;10.00;;;;;22.25;49.08;100457.31;110287;1263;23254;-49
2022/06/01 05:11:37;;;;;;;;;10.33;10.00;;;;;22.25;49.09;100454.45;110310;1263;23572;-49
2022/06/01 05:14:04;;;;;;;;;10.00;9.00;;;;;22.24;49.00;100449.28;110293;1263;20875;-47
2022/06/01 05:16:32;;;;;;;;;11.00;11.00;;;;;22.24;48.86;100441.63;110266;1262;21667;-48
2022/06/01 05:18:59;;;;;;;;;11.33;10.00;;;;;22.24;48.86;100443.48;110320;1263;19346;-50
2022/06/01 05:21:27;;;;;;;;;9.33;9.33;;;;;22.24;48.92;100439.62;110277;1264;19532;-50
2022/06/01 05:23:54;;;;;;;;;10.00;10.00;;;;;22.25;48.92;100439.38;110285;1264;20361;-48
2022/06/01 05:26:21;;;;;;;;;13.00;11.50;;;;;22.26;49.07;100440.71;110172;1262;23484;-49
2022/06/01 05:28:49;;;;;;;;;9.00;9.00;;;;;22.27;49.00;100446.44;110265;1262;19465;-48
2022/06/01 05:31:16;;;;;;;;;10.00;10.00;;;;;22.27;48.98;100450.35;110186;1264;22629;-49
2022/06/01 05:33:44;;;;;;;;;9.67;9.67;;;;;22.27;49.13;100435.77;110255;1264;20863;-50
2022/06/01 05:36:11;;;;;;;;;14.00;13.00;;;;;22.25;49.10;100430.05;110231;1264;19896;-48
2022/06/01 05:38:38;;;;;;;;;18.00;17.00;;;;;22.21;49.26;100428.95;110264;1264;21695;-47
2022/06/01 05:41:06;;;;;;;;;18.67;17.33;;;;;22.22;49.09;100444.08;109527;1263;695683;-50
2022/06/01 05:43:33;;;;;;;;;16.67;16.00;;;;;22.21;49.19;100446.13;110403;1264;19996;-47
2022/06/01 05:46:01;;;;;;;;;15.33;15.00;;;;;22.18;49.08;100446.45;110249;1264;20400;-48
2022/06/01 05:48:28;;;;;;;;;12.33;12.33;;;;;22.17;49.15;100447.88;110240;1264;19181;-49
2022/06/01 05:50:55;;;;;;;;;18.00;16.00;;;;;22.14;49.19;100448.74;110243;1264;19673;-47
2022/06/01 05:53:22;;;;;;;;;20.00;19.00;;;;;22.12;49.06;100447.13;110234;1263;22624;-47
2022/06/01 05:55:50;;;;;;;;;20.33;18.00;;;;;22.11;49.06;100441.11;110173;1264;19342;-49
2022/06/01 05:58:17;;;;;;;;;20.00;20.00;;;;;22.09;48.98;100441.87;110271;1263;19567;-48
2022/06/01 06:00:44;;;;;;;;;17.00;16.67;;;;;22.06;49.10;100438.73;110224;1264;22858;-50
2022/06/01 06:03:11;;;;;;;;;16.00;14.00;;;;;22.07;49.00;100445.20;110273;1264;21435;-49
2022/06/01 06:08:24;;;;;;;;;19.33;18.00;;;;;22.08;49.07;100470.66;110264;1263;20585;-48
2022/06/01 06:10:51;;;;;;;;;18.00;16.67;;;;;22.05;49.27;100479.30;110284;1263;23008;-47
2022/06/01 06:13:18;;;;;;;;;21.00;20.33;;;;;21.92;49.30;100475.73;110276;1264;19551;-48
2022/06/01 06:15:45;;;;;;;;;23.67;21.67;;;;;21.28;50.63;100479.12;110176;1263;20275;-50
2022/06/01 06:18:13;;;;;;;;;22.00;20.00;;;;;20.93;51.76;100469.27;110079;1263;19304;-48
2022/06/01 06:20:40;;;;;;;;;21.67;20.00;;;;;21.02;51.92;100468.17;110294;1264;23120;-49
2022/06/01 06:23:07;;;;;;;;;20.00;19.33;;;;;21.26;51.78;100464.94;110257;1264;20548;-49
2022/06/01 06:25:34;;;;;;;;;25.67;20.00;;;;;21.52;51.26;100462.38;110228;1264;24337;-48
2022/06/01 06:28:01;;;;;;;;;18.50;17.00;;;;;21.75;50.74;100457.64;110238;1264;19563;-48
2022/06/01 06:30:29;;;;;;;;;21.00;20.00;;;;;21.82;50.79;100460.17;110150;1263;21338;-50
2022/06/01 06:32:56;;;;;;;;;20.00;17.67;;;;;21.86;50.65;100452.11;110271;1264;19257;-53
2022/06/01 06:35:24;;;;;;;;;17.00;17.00;;;;;21.98;50.64;100453.14;110268;1262;21980;-48
2022/06/01 06:37:52;;;;;;;;;19.67;18.33;;;;;22.08;51.20;100458.15;110218;1264;20508;-50
2022/06/01 06:40:19;;;;;;;;;20.67;20.00;;;;;22.16;51.37;100460.30;110250;1263;20297;-49
2022/06/01 06:42:46;;;;;;;;;18.67;18.67;;;;;22.20;51.29;100452.96;110228;1263;19422;-51
2022/06/01 06:45:13;;;;;;;;;17.33;16.00;;;;;22.23;51.61;100449.80;110237;1263;20335;-51
2022/06/01 06:47:41;;;;;;;;;16.00;16.00;;;;;22.29;51.34;100452.51;110289;1264;19549;-49
2022/06/01 06:50:09;;;;;;;;;16.33;16.33;;;;;22.28;51.35;100452.83;110194;1262;19861;-49
2022/06/01 06:52:36;;;;;;;;;18.00;17.00;;;;;22.31;51.61;100451.90;110227;1264;23075;-47
2022/06/01 06:55:03;;;;;;;;;16.50;16.00;;;;;22.30;51.57;100450.76;110181;1264;19360;-48
2022/06/01 06:57:30;;;;;;;;;18.00;18.00;;;;;22.33;51.39;100451.42;110246;1262;19639;-49
2022/06/01 06:59:57;;;;;;;;;17.33;17.33;;;;;22.35;51.46;100454.26;110302;1264;24067;-46
2022/06/01 07:02:25;;;;;;;;;22.00;20.00;;;;;22.36;51.64;100449.98;110270;1264;19326;-52
2022/06/01 07:04:52;;;;;;;;;18.67;17.67;;;;;22.40;51.57;100452.88;110197;1264;23094;-50
2022/06/01 07:07:19;;;;;;;;;19.67;18.00;;;;;22.41;51.57;100447.13;110272;1264;20484;-48
2022/06/01 07:09:46;;;;;;;;;18.00;18.00;;;;;22.44;51.39;100448.92;110248;1264;23074;-49
2022/06/01 07:12:13;;;;;;;;;18.67;18.00;;;;;22.45;51.39;100451.36;110256;1264;19719;-50
2022/06/01 07:14:41;;;;;;;;;21.00;20.33;;;;;22.46;51.45;100442.01;110307;1264;20376;-49
2022/06/01 07:17:08;;;;;;;;;22.50;22.00;;;;;22.42;51.21;100447.14;110252;1263;19249;-49
2022/06/01 07:19:35;;;;;;;;;19.33;18.67;;;;;22.38;51.33;100449.00;110268;1264;19932;-49
2022/06/01 07:22:02;;;;;;;;;20.50;20.00;;;;;22.38;51.36;100450.46;110238;1264;22968;-50
2022/06/01 07:24:30;;;;;;;;;23.00;21.00;;;;;22.25;51.53;100453.52;110161;1264;19244;-50
2022/06/01 07:26:57;;;;;;;;;22.00;21.67;;;;;22.01;51.73;100450.11;110279;1264;23206;-49
2022/06/01 07:29:24;;;;;;;;;27.00;25.00;;;;;21.92;51.77;100450.26;110275;1263;20549;-50
2022/06/01 07:31:51;;;;;;;;;30.00;28.00;;;;;21.71;52.19;100449.77;110277;1264;23174;-51
2022/06/01 07:34:19;;;;;;;;;28.33;25.00;;;;;21.34;52.99;100449.59;110244;1264;19867;-50
2022/06/01 07:36:48;;;;;;;;;30.00;28.00;;;;;21.07;53.56;100455.94;110275;1264;20700;-49
2022/06/01 07:44:45;;;;;;;;;24.00;22.33;;;;;21.48;52.77;100454.52;110213;1265;21583;-51
2022/06/01 07:47:12;;;;;;;;;27.33;24.00;;;;;21.66;52.58;100453.08;110268;1264;23931;-49
2022/06/01 07:49:39;;;;;;;;;26.67;24.00;;;;;21.74;52.22;100455.40;110222;1263;20816;-51
2022/06/01 07:52:06;;;;;;;;;31.00;27.67;;;;;21.74;52.19;100462.52;110241;1264;20404;-49
2022/06/01 07:54:34;;;;;;;;;26.00;24.67;;;;;21.61;52.60;100452.56;110263;1264;20226;-50
2022/06/01 07:57:01;;;;;;;;;30.67;29.00;;;;;21.68;52.40;100451.39;110236;1264;20607;-50
2022/06/01 07:59:28;;;;;;;;;23.67;22.33;;;;;21.76;52.09;100449.98;110063;1264;21115;-50
2022/06/01 08:01:55;;;;;;;;;25.00;24.00;;;;;21.82;51.87;100448.58;110082;1264;23354;-50
2022/06/01 08:04:23;;;;;;;;;32.67;27.67;;;;;21.82;51.98;100450.01;110197;1264;19853;-50
2022/06/01 08:06:50;;;;;;;;;23.00;22.33;;;;;21.83;52.01;100452.45;110123;1264;21733;-51
2022/06/01 08:09:17;;;;;;;;;29.00;25.00;;;;;21.81;52.13;100452.05;110176;1264;19356;-50
2022/06/01 08:14:31;;;;;;;;;27.67;27.67;;;;;21.79;52.56;100449.27;109703;1267;20373;-51
2022/06/01 08:16:58;;;;;;;;;27.50;25.50;;;;;21.81;52.35;100451.58;109800;1268;19544;-50
2022/06/01 08:19:25;;;;;;;;;33.33;29.33;;;;;21.87;52.24;100453.73;109815;1268;20056;-52
2022/06/01 08:21:53;;;;;;;;;29.00;28.00;;;;;21.91;52.10;100455.73;109721;1268;23232;-50
2022/06/01 08:24:20;;;;;;;;;27.33;26.00;;;;;21.75;52.84;100455.59;109774;1268;19325;-51
2022/06/01 08:26:47;;;;;;;;;25.33;25.00;;;;;21.71;52.87;100456.80;109807;1268;19868;-50
2022/06/01 08:29:15;;;;;;;;;27.33;25.00;;;;;21.72;52.57;100457.30;109790;1268;21404;-49
2022/06/01 08:31:42;;;;;;;;;31.33;29.33;;;;;21.78;52.54;100459.95;109860;1267;19717;-50
2022/06/01 08:34:12;;;;;;;;;30.33;28.67;;;;;21.81;52.29;100457.77;109779;1268;20936;-50
2022/06/01 08:36:39;;;;;;;;;32.00;28.00;;;;;21.77;52.49;100460.64;109816;1268;21236;-51
2022/06/01 08:39:06;;;;;;;;;32.67;31.67;;;;;21.84;52.28;100456.59;109605;1268;24226;-55
2022/06/01 08:41:34;;;;;;;;;46.00;41.00;;;;;21.91;52.44;100452.85;109669;1268;20134;-51
2022/06/01 08:44:01;;;;;;;;;50.00;41.67;;;;;22.00;52.28;100449.02;109694;1268;22185;-51
2022/06/01 08:46:29;;;;;;;;;88.00;67.67;;;;;22.07;52.45;100445.91;109686;1268;19201;-49
2022/06/01 08:48:56;;;;;;;;;99.00;72.00;;;;;22.02;52.77;100441.98;109673;1268;19600;-49
2022/06/01 08:51:23;;;;;;;;;95.33;69.00;;;;;22.07;52.99;100438.52;109651;1265;20421;-52
2022/06/01 08:53:50;;;;;;;;;88.50;65.00;;;;;22.05;52.97;100437.79;110248;1262;21859;-51
2022/06/01 08:56:19;;;;;;;;;74.50;58.00;;;;;22.03;52.99;100442.59;110208;1262;19614;-50
2022/06/01 08:58:46;;;;;;;;;82.67;60.00;;;;;22.03;53.01;100444.13;110223;1262;23553;-50
2022/06/01 09:01:14;;;;;;;;;69.50;56.00;;;;;22.02;53.23;100450.21;110188;1262;23739;-52
2022/06/01 09:03:41;;;;;;;;;71.00;54.00;;;;;22.02;53.43;100452.90;110204;1262;19612;-49
2022/06/01 09:06:08;;;;;;;;;63.67;50.00;;;;;21.96;53.88;100454.46;110263;1264;22829;-53
2022/06/01 09:08:36;;;;;;;;;65.00;52.00;;;;;21.93;53.71;100458.52;110107;1264;19100;-50
2022/06/01 09:11:03;;;;;;;;;65.33;49.00;;;;;21.93;53.49;100451.73;110293;1264;20865;-49
2022/06/01 09:13:30;;;;;;;;;60.50;48.00;;;;;21.92;53.38;100451.47;110271;1264;20269;-49
2022/06/01 09:15:58;;;;;;;;;55.67;46.67;;;;;21.87;53.37;100448.23;110197;1263;19405;-49
2022/06/01 09:18:26;;;;;;;;;57.00;47.00;;;;;21.87;53.32;100449.19;110533;1258;19797;-51
2022/06/01 09:23:38;;;;;;;;;51.00;44.00;;;;;21.81;52.96;100449.41;110592;1258;19232;-50
2022/06/01 09:26:05;;;;;;;;;52.00;44.33;;;;;21.77;53.30;100446.09;110489;1258;21623;-49
2022/06/01 09:28:32;;;;;;;;;54.00;44.00;;;;;21.85;53.14;100448.03;110518;1258;20406;-50
2022/06/01 09:31:00;;;;;;;;;44.50;41.50;;;;;21.85;52.92;100447.61;110439;1259;19356;-53
2022/06/01 09:33:27;;;;;;;;;48.67;41.33;;;;;21.83;52.69;100444.60;110362;1259;20790;-47
2022/06/01 09:35:55;;;;;;;;;46.00;43.00;;;;;21.94;52.45;100439.95;110314;1259;20269;-50
2022/06/01 09:38:22;;;;;;;;;43.00;37.50;;;;;22.00;52.50;100430.07;110335;1259;19347;-47
2022/06/01 09:40:49;;;;;;;;;38.33;37.33;;;;;21.97;52.41;100437.77;110541;1258;19531;-51
2022/06/01 09:43:17;;;;;;;;;37.00;36.00;;;;;22.00;52.03;100449.22;110550;1259;21817;-51
2022/06/01 09:45:44;;;;;;;;;32.67;31.67;;;;;21.93;52.26;100445.77;110590;1258;19219;-50
2022/06/01 09:48:11;;;;;;;;;38.00;36.00;;;;;21.88;52.23;100446.11;110504;1258;19551;-50
2022/06/01 09:50:38;;;;;;;;;37.50;33.00;;;;;21.86;52.28;100449.34;110606;1258;20417;-51
2022/06/01 09:53:05;;;;;;;;;36.00;33.67;;;;;21.82;52.11;100448.16;110433;1259;19514;-47
2022/06/01 09:55:33;;;;;;;;;29.67;28.33;;;;;21.81;51.69;100449.36;110386;1259;22941;-49
2022/06/01 09:58:00;;;;;;;;;30.67;29.00;;;;;21.83;51.35;100443.14;110571;1258;20196;-50
2022/06/01 10:06:09;;;;;;;;;69.00;52.33;;;;;22.01;52.09;100440.13;110588;1258;23183;-50
2022/06/01 10:08:42;;;;;;;;;4447.67;4447.67;;;;;22.19;52.87;100446.90;110460;1260;19122;-50
2022/06/01 10:11:10;;;;;;;;;4455.25;4455.25;;;;;22.30;53.33;100441.44;110560;1258;19907;-50
2022/06/01 10:13:37;;;;;;;;;4435.67;4435.67;;;;;22.37;54.16;100439.58;110423;1261;20394;-50
2022/06/01 10:16:06;;;;;;;;;4443.67;4443.67;;;;;22.44;54.28;100447.70;110335;1261;22729;-49
2022/06/01 10:18:33;;;;;;;;;4428.33;4428.33;;;;;22.45;53.91;100452.84;110557;1259;23628;-50
2022/06/01 10:21:00;;;;;;;;;3418.75;3402.00;;;;;22.45;53.97;100453.92;110611;1258;20395;-51
2022/06/01 10:23:27;;;;;;;;;273.00;242.25;;;;;22.43;53.86;100458.58;110422;1261;22886;-50
2022/06/01 10:25:55;;;;;;;;;102.75;83.50;;;;;22.32;53.03;100447.75;110415;1260;19699;-49
2022/06/01 10:28:22;;;;;;;;;89.50;69.50;;;;;22.23;52.54;100445.85;110519;1258;20464;-50
2022/06/01 10:30:49;;;;;;;;;81.67;64.00;;;;;22.10;52.80;100448.31;110457;1259;23802;-48
2022/06/01 10:33:17;;;;;;;;;69.67;57.00;;;;;22.07;52.47;100453.52;110488;1258;20064;-48
2022/06/01 10:35:44;;;;;;;;;90.00;72.50;;;;;22.12;52.33;100458.38;110591;1258;20227;-49
2022/06/01 10:38:14;;;;;;;;;104.33;96.33;;;;;22.19;52.94;100462.98;110585;1258;19362;-49
2022/06/01 10:40:41;;;;;;;;;89.00;70.67;;;;;22.20;52.98;100462.04;110432;1261;23539;-50
2022/06/01 10:43:17;;;;;;;;;41.00;38.00;;;;;22.19;52.70;100465.39;110445;1261;20392;-50
2022/06/01 10:45:47;;;;;;;;;51.00;44.50;;;;;22.11;51.72;100466.92;110492;1259;19204;-50
2022/06/01 10:48:14;;;;;;;;;39.67;36.00;;;;;22.06;51.60;100472.27;110585;1258;19531;-50
2022/06/01 10:50:41;;;;;;;;;38.33;37.00;;;;;21.93;51.56;100472.10;110603;1259;20416;-51
2022/06/01 10:53:09;;;;;;;;;38.50;37.00;;;;;21.80;51.90;100473.61;110378;1261;19442;-49
2022/06/01 10:55:36;;;;;;;;;40.00;36.00;;;;;21.78;51.79;100485.17;110605;1258;19810;-49
2022/06/01 10:58:03;;;;;;;;;30.33;29.67;;;;;21.80;51.91;100489.86;110303;1260;20266;-51
2022/06/01 11:00:30;;;;;;;;;32.00;28.00;;;;;21.78;52.33;100496.92;110579;1258;19268;-50
2022/06/01 11:02:57;;;;;;;;;29.67;29.00;;;;;21.75;52.29;100498.48;110601;1258;19697;-50
2022/06/01 11:05:25;;;;;;;;;25.00;25.00;;;;;21.75;52.16;100495.31;110428;1260;20241;-49
2022/06/01 11:07:53;;;;;;;;;25.67;25.67;;;;;21.74;51.98;100499.02;110448;1260;19365;-50
2022/06/01 11:10:20;;;;;;;;;25.67;24.00;;;;;21.70;51.96;100491.15;110430;1260;19542;-50
2022/06/01 11:12:48;;;;;;;;;24.33;23.00;;;;;21.72;51.94;100483.08;110413;1261;20149;-50
2022/06/01 11:15:15;;;;;;;;;25.00;21.67;;;;;21.87;52.01;100480.97;110454;1261;19864;-50
2022/06/01 11:17:42;;;;;;;;;20.50;20.50;;;;;22.02;51.70;100478.56;110440;1261;19654;-49
2022/06/01 11:20:09;;;;;;;;;26.33;22.67;;;;;22.14;51.66;100484.77;110398;1260;22848;-51
2022/06/01 11:22:36;;;;;;;;;20.00;20.00;;;;;22.24;51.39;100504.70;110361;1261;19289;-48
2022/06/01 11:25:04;;;;;;;;;24.67;24.00;;;;;22.31;51.54;100508.45;110420;1261;19706;-50
2022/06/01 11:27:31;;;;;;;;;17.67;17.33;;;;;22.28;51.36;100513.40;110411;1260;20262;-48
2022/06/01 11:29:58;;;;;;;;;20.67;19.33;;;;;22.06;51.37;100514.84;110441;1261;23806;-50